Time;durP1;ratioP1;P1;durP2;ratioP2;P2;SDS_P1;SDS_P2;PMS_P1;PMS_P2;Temp;Humidity;BMP_temperature;BMP_pressure;BME280_temperature;BME280_humidity;BME280_pressure;Samples;Min_cycle;Max_cycle;Signal;HPM_P1;HPM_P2
2021/04/27 00:06:17;;;;;;;5.90;3.00;;;;;;;;;;4349069;33;20154;-73
2021/04/27 00:08:45;;;;;;;4.87;3.20;;;;;;;;;;4348143;33;20465;-73
2021/04/27 00:11:10;;;;;;;7.20;3.20;;;;;;;;;;4348171;33;20203;-73
2021/04/27 00:20:31;;;;;;;5.30;3.30;;;;;;;;;;4317051;33;20200;-73
2021/04/27 00:23:12;;;;;;;5.40;3.20;;;;;;;;;;4315863;33;20651;-73
2021/04/27 00:28:49;;;;;;;5.67;3.43;;;;;;;;;;4316854;33;20214;-73
2021/04/27 00:40:07;;;;;;;8.50;3.30;;;;;;;;;;4259909;33;20159;-73
2021/04/27 00:43:01;;;;;;;8.33;3.63;;;;;;;;;;4305466;33;20176;-73
2021/04/27 00:48:27;;;;;;;6.33;3.20;;;;;;;;;;4362819;32;20174;-73
2021/04/27 00:50:55;;;;;;;5.43;3.27;;;;;;;;;;4362644;32;20177;-73
2021/04/27 00:54:03;;;;;;;5.63;3.20;;;;;;;;;;4362767;32;20143;-73
2021/04/27 00:56:51;;;;;;;6.30;3.40;;;;;;;;;;4314954;33;20210;-73
2021/04/27 00:59:42;;;;;;;9.00;3.57;;;;;;;;;;4362415;32;20177;-73
2021/04/27 01:14:26;;;;;;;6.13;3.97;;;;;;;;;;4287300;33;20183;-73
2021/04/27 01:20:15;;;;;;;10.57;3.80;;;;;;;;;;4316382;33;20152;-73
2021/04/27 01:23:15;;;;;;;8.27;3.83;;;;;;;;;;4316179;33;20326;-72
2021/04/27 01:26:12;;;;;;;7.50;3.90;;;;;;;;;;4286868;33;20155;-73
2021/04/27 01:29:00;;;;;;;5.67;3.90;;;;;;;;;;4300906;33;20252;-73
2021/04/27 01:34:38;;;;;;;6.70;3.70;;;;;;;;;;4286832;33;20155;-73
2021/04/27 01:37:05;;;;;;;9.13;4.33;;;;;;;;;;4286415;33;20175;-73
2021/04/27 01:43:22;;;;;;;;;;;;;;;;;;;;;
2021/04/27 01:45:48;;;;;;;7.93;3.60;;;;;;;;;;4300244;33;20519;-73
2021/04/27 01:48:14;;;;;;;6.93;4.30;;;;;;;;;;4345020;33;20187;-73
2021/04/27 01:51:00;;;;;;;6.77;3.70;;;;;;;;;;4347074;33;20459;-72
2021/04/27 01:53:25;;;;;;;7.37;3.93;;;;;;;;;;4315285;33;20602;-74
2021/04/27 01:56:12;;;;;;;7.97;4.37;;;;;;;;;;4315130;33;20152;-73
2021/04/27 02:01:47;;;;;;;6.27;3.83;;;;;;;;;;4315341;33;20171;-73
2021/04/27 02:04:25;;;;;;;6.80;4.20;;;;;;;;;;4315522;33;20299;-73
2021/04/27 02:07:34;;;;;;;;;;;;;;;;;;;;;
2021/04/27 02:10:03;;;;;;;11.40;4.23;;;;;;;;;;4309545;33;20624;-73
2021/04/27 02:12:29;;;;;;;5.20;3.60;;;;;;;;;;4307198;33;20568;-73
2021/04/27 02:15:24;;;;;;;10.37;4.57;;;;;;;;;;4346471;33;20140;-73
2021/04/27 02:18:17;;;;;;;8.83;4.10;;;;;;;;;;4333197;33;20226;-73
2021/04/27 02:21:05;;;;;;;9.77;4.30;;;;;;;;;;4340650;33;20139;-73
2021/04/27 02:23:57;;;;;;;9.90;4.47;;;;;;;;;;4339638;33;20187;-73
2021/04/27 02:26:44;;;;;;;6.33;4.10;;;;;;;;;;4324416;33;20182;-73
2021/04/27 02:29:38;;;;;;;;;;;;;;;;;;;;;
2021/04/27 02:32:06;;;;;;;8.83;4.23;;;;;;;;;;4345799;33;20225;-73
2021/04/27 02:34:32;;;;;;;6.93;3.90;;;;;;;;;;4346511;33;20144;-73
2021/04/27 02:37:19;;;;;;;7.00;3.83;;;;;;;;;;4346231;33;20155;-73
2021/04/27 02:40:09;;;;;;;;;;;;;;;;;;;;;
2021/04/27 02:42:35;;;;;;;8.40;4.20;;;;;;;;;;4346650;33;20143;-73
2021/04/27 02:48:05;;;;;;;5.97;4.07;;;;;;;;;;4346247;33;20167;-73
2021/04/27 02:50:30;;;;;;;7.63;3.77;;;;;;;;;;4330640;33;20236;-73
2021/04/27 02:52:58;;;;;;;10.33;4.23;;;;;;;;;;4345927;33;20172;-73
2021/04/27 02:55:27;;;;;;;10.30;4.17;;;;;;;;;;4345770;33;20186;-73
2021/04/27 02:58:32;;;;;;;9.20;4.00;;;;;;;;;;4346115;33;20135;-73
2021/04/27 03:01:16;;;;;;;7.40;3.90;;;;;;;;;;4345757;33;20202;-73
2021/04/27 03:04:03;;;;;;;;;;;;;;;;;;;;;
2021/04/27 03:10:09;;;;;;;7.50;4.30;;;;;;;;;;4345834;33;20181;-73
2021/04/27 03:12:35;;;;;;;6.23;3.67;;;;;;;;;;4346155;33;20166;-73
2021/04/27 03:18:12;;;;;;;8.13;3.70;;;;;;;;;;4322559;33;20493;-73
2021/04/27 03:29:46;;;;;;;7.77;4.00;;;;;;;;;;4359035;32;20567;-73
2021/04/27 03:35:30;;;;;;;5.33;4.00;;;;;;;;;;4285824;33;20175;-73
2021/04/27 03:40:45;;;;;;;9.97;4.40;;;;;;;;;;4345939;32;20170;-73
2021/04/27 03:43:11;;;;;;;7.97;4.00;;;;;;;;;;4360006;33;20173;-73
2021/04/27 03:45:57;;;;;;;8.97;4.20;;;;;;;;;;4360572;33;20513;-71
2021/04/27 03:48:45;;;;;;;7.50;3.90;;;;;;;;;;4360830;33;20146;-72
2021/04/27 03:51:18;;;;;;;8.00;4.00;;;;;;;;;;4360753;33;20181;-72
2021/04/27 03:53:53;;;;;;;;;;;;;;;;;;;;;
2021/04/27 03:56:22;;;;;;;7.27;4.43;;;;;;;;;;4360696;33;20176;-71
2021/04/27 03:58:50;;;;;;;6.67;3.97;;;;;;;;;;4360429;33;20143;-71
2021/04/27 04:01:25;;;;;;;;;;;;;;;;;;;;;
2021/04/27 04:04:30;;;;;;;8.73;4.50;;;;;;;;;;4313775;33;20182;-72
2021/04/27 04:07:01;;;;;;;6.73;4.17;;;;;;;;;;4308652;33;20171;-72
2021/04/27 04:09:44;;;;;;;7.27;4.10;;;;;;;;;;4314108;33;20147;-72
2021/04/27 04:12:09;;;;;;;9.13;4.07;;;;;;;;;;4317240;33;20199;-72
2021/04/27 04:14:35;;;;;;;8.23;4.47;;;;;;;;;;4360385;33;20154;-72
2021/04/27 04:17:04;;;;;;;10.80;4.23;;;;;;;;;;4360018;33;20190;-72
2021/04/27 04:20:02;;;;;;;9.40;4.60;;;;;;;;;;4360753;32;20173;-71
2021/04/27 04:22:38;;;;;;;;;;;;;;;;;;;;;
2021/04/27 04:28:27;;;;;;;8.10;4.40;;;;;;;;;;4360769;33;20501;-71
2021/04/27 04:31:20;;;;;;;6.20;3.93;;;;;;;;;;4358632;33;20170;-72
2021/04/27 04:34:06;;;;;;;;;;;;;;;;;;;;;
2021/04/27 04:39:48;;;;;;;11.00;4.87;;;;;;;;;;4326661;33;20580;-72
2021/04/27 04:45:52;;;;;;;8.57;4.23;;;;;;;;;;4287628;33;20172;-73
2021/04/27 04:48:25;;;;;;;9.80;4.63;;;;;;;;;;4296081;33;20195;-73
2021/04/27 04:50:51;;;;;;;11.10;4.90;;;;;;;;;;4342740;33;20138;-73
2021/04/27 04:57:06;;;;;;;9.70;4.27;;;;;;;;;;4276082;33;20211;-72
2021/04/27 04:59:50;;;;;;;6.00;4.27;;;;;;;;;;4277279;33;20213;-72
2021/04/27 05:03:01;;;;;;;9.90;4.50;;;;;;;;;;4287739;33;20149;-72
2021/04/27 05:05:01;;;;;;;8.37;4.27;;;;;;;;;;4319991;33;20213;-72
2021/04/27 05:07:28;;;;;;;5.80;4.20;;;;;;;;;;4347579;33;20140;-72
2021/04/27 05:10:24;;;;;;;12.90;4.50;;;;;;;;;;4347757;33;20190;-73
2021/04/27 05:12:52;;;;;;;7.27;4.07;;;;;;;;;;4274893;33;20199;-74
2021/04/27 05:15:25;;;;;;;8.63;4.70;;;;;;;;;;4288077;33;20220;-73
2021/04/27 05:17:50;;;;;;;7.97;4.20;;;;;;;;;;4342596;33;20201;-73
2021/04/27 05:20:34;;;;;;;7.13;4.20;;;;;;;;;;4347478;33;20506;-74
2021/04/27 05:23:00;;;;;;;10.17;5.03;;;;;;;;;;4349305;33;20450;-72
2021/04/27 05:25:33;;;;;;;7.03;4.57;;;;;;;;;;4364140;32;20188;-72
2021/04/27 05:27:59;;;;;;;7.00;4.57;;;;;;;;;;4362989;32;20185;-73
2021/04/27 05:30:25;;;;;;;8.90;4.37;;;;;;;;;;4348665;33;20164;-72
2021/04/27 05:32:50;;;;;;;8.83;4.60;;;;;;;;;;4360601;32;20556;-72
2021/04/27 05:35:24;;;;;;;7.30;4.40;;;;;;;;;;4362148;33;20143;-73
2021/04/27 05:37:50;;;;;;;7.63;4.70;;;;;;;;;;4362555;32;20142;-72
2021/04/27 05:40:15;;;;;;;9.93;4.70;;;;;;;;;;4361817;32;20163;-72
2021/04/27 05:42:40;;;;;;;7.87;4.97;;;;;;;;;;4362409;32;20139;-73
2021/04/27 05:45:06;;;;;;;7.03;4.80;;;;;;;;;;4361098;32;20168;-72
2021/04/27 05:47:32;;;;;;;8.83;4.63;;;;;;;;;;4361795;32;20155;-73
2021/04/27 05:49:57;;;;;;;8.03;4.57;;;;;;;;;;4359741;32;20166;-73
2021/04/27 05:52:22;;;;;;;10.97;4.90;;;;;;;;;;4361203;32;20246;-73
2021/04/27 05:54:47;;;;;;;7.33;4.60;;;;;;;;;;4361217;32;20201;-73
2021/04/27 05:57:13;;;;;;;7.17;4.70;;;;;;;;;;4361904;32;20163;-74
2021/04/27 05:59:46;;;;;;;7.90;4.63;;;;;;;;;;4361688;32;20143;-74
2021/04/27 06:02:15;;;;;;;7.13;4.73;;;;;;;;;;4361011;33;20549;-72
2021/04/27 06:04:46;;;;;;;9.97;4.70;;;;;;;;;;4360665;33;20209;-72
2021/04/27 06:07:11;;;;;;;7.43;4.50;;;;;;;;;;4360695;32;20228;-72
2021/04/27 06:09:44;;;;;;;6.93;4.43;;;;;;;;;;4360770;32;20509;-72
2021/04/27 06:12:09;;;;;;;11.17;4.60;;;;;;;;;;4361485;32;20143;-72
2021/04/27 06:14:37;;;;;;;7.50;4.63;;;;;;;;;;4361183;32;20139;-73
2021/04/27 06:17:02;;;;;;;9.67;4.47;;;;;;;;;;4361775;32;20143;-74
2021/04/27 06:19:27;;;;;;;13.90;4.80;;;;;;;;;;4347205;33;20273;-72
2021/04/27 06:21:53;;;;;;;6.80;4.47;;;;;;;;;;4360957;32;20190;-71
2021/04/27 06:24:21;;;;;;;10.80;5.30;;;;;;;;;;4360433;32;20185;-72
2021/04/27 06:26:46;;;;;;;8.07;4.60;;;;;;;;;;4347201;32;20155;-73
2021/04/27 06:29:11;;;;;;;8.90;5.20;;;;;;;;;;4360550;32;20151;-72
2021/04/27 06:31:37;;;;;;;6.97;4.97;;;;;;;;;;4360636;32;20651;-72
2021/04/27 06:34:03;;;;;;;11.13;4.97;;;;;;;;;;4361007;33;20135;-72
2021/04/27 06:36:28;;;;;;;11.47;4.80;;;;;;;;;;4361042;33;20583;-73
2021/04/27 06:38:53;;;;;;;12.23;5.07;;;;;;;;;;4360438;32;20136;-72
2021/04/27 06:41:22;;;;;;;9.70;5.00;;;;;;;;;;4360605;32;20157;-72
2021/04/27 06:43:47;;;;;;;8.50;4.60;;;;;;;;;;4360338;32;20489;-72
2021/04/27 06:46:14;;;;;;;7.67;5.07;;;;;;;;;;4360681;32;20162;-73
2021/04/27 06:48:40;;;;;;;10.60;5.10;;;;;;;;;;4360410;32;20542;-72
2021/04/27 06:51:06;;;;;;;13.57;5.53;;;;;;;;;;4361013;32;20135;-72
2021/04/27 06:53:32;;;;;;;10.57;4.90;;;;;;;;;;4360833;32;20139;-72
2021/04/27 06:55:57;;;;;;;8.07;4.87;;;;;;;;;;4346669;32;20171;-74
2021/04/27 06:58:23;;;;;;;9.30;5.07;;;;;;;;;;4360422;32;20147;-73
2021/04/27 07:00:48;;;;;;;11.87;4.97;;;;;;;;;;4361521;32;20135;-72
2021/04/27 07:03:16;;;;;;;10.23;5.50;;;;;;;;;;4360432;32;20166;-72
2021/04/27 07:05:43;;;;;;;10.83;5.27;;;;;;;;;;4361005;32;20543;-72
2021/04/27 07:08:18;;;;;;;10.27;5.23;;;;;;;;;;4360000;32;20614;-73
2021/04/27 07:10:43;;;;;;;9.43;5.77;;;;;;;;;;4360848;32;20186;-72
2021/04/27 07:13:08;;;;;;;7.30;4.90;;;;;;;;;;4360450;32;20365;-72
2021/04/27 07:15:34;;;;;;;9.47;5.40;;;;;;;;;;4360105;32;20190;-72
2021/04/27 07:17:59;;;;;;;6.97;4.97;;;;;;;;;;4360458;32;20576;-72
2021/04/27 07:20:24;;;;;;;13.20;5.30;;;;;;;;;;4360233;32;20201;-73
2021/04/27 07:22:50;;;;;;;8.47;5.47;;;;;;;;;;4359651;33;20301;-72
2021/04/27 07:25:15;;;;;;;10.13;5.30;;;;;;;;;;4360058;32;20260;-72
2021/04/27 07:27:41;;;;;;;7.90;4.80;;;;;;;;;;4359706;33;20151;-73
2021/04/27 07:30:07;;;;;;;10.23;5.77;;;;;;;;;;4359858;32;20166;-71
2021/04/27 07:32:44;;;;;;;7.07;5.10;;;;;;;;;;4359803;33;20169;-72
2021/04/27 07:35:13;;;;;;;9.00;5.23;;;;;;;;;;4358074;32;20163;-73
2021/04/27 07:37:38;;;;;;;8.77;5.30;;;;;;;;;;4359865;32;20143;-69
2021/04/27 07:40:04;;;;;;;8.20;5.50;;;;;;;;;;4359714;33;20287;-72
2021/04/27 07:42:30;;;;;;;10.27;6.30;;;;;;;;;;4360158;32;20508;-70
2021/04/27 07:45:06;;;;;;;8.57;5.30;;;;;;;;;;4360621;33;20131;-72
2021/04/27 07:47:31;;;;;;;8.63;5.13;;;;;;;;;;4356313;33;20143;-72
2021/04/27 07:49:57;;;;;;;8.53;5.20;;;;;;;;;;4359575;33;20155;-73
2021/04/27 07:52:23;;;;;;;9.47;5.70;;;;;;;;;;4360156;32;20135;-73
2021/04/27 07:54:51;;;;;;;12.67;5.60;;;;;;;;;;4359868;33;20135;-72
2021/04/27 07:57:16;;;;;;;8.47;5.40;;;;;;;;;;4360576;32;20163;-73
2021/04/27 07:59:51;;;;;;;10.10;5.80;;;;;;;;;;4359565;33;20172;-72
2021/04/27 08:02:19;;;;;;;8.23;5.80;;;;;;;;;;4361004;32;20551;-72
2021/04/27 08:04:54;;;;;;;10.13;5.30;;;;;;;;;;4359610;33;20214;-74
2021/04/27 08:07:19;;;;;;;8.57;5.23;;;;;;;;;;4360584;33;20216;-73
2021/04/27 08:09:44;;;;;;;9.33;5.90;;;;;;;;;;4360327;33;20434;-73
2021/04/27 08:12:20;;;;;;;9.00;5.57;;;;;;;;;;4346148;33;20231;-74
2021/04/27 08:14:45;;;;;;;11.47;6.20;;;;;;;;;;4361792;32;20142;-73
2021/04/27 08:17:12;;;;;;;8.87;5.50;;;;;;;;;;4362580;32;20139;-72
2021/04/27 08:19:37;;;;;;;10.47;6.60;;;;;;;;;;4363336;32;20155;-73
2021/04/27 08:22:05;;;;;;;9.90;5.80;;;;;;;;;;4361944;32;20495;-72
2021/04/27 08:24:34;;;;;;;12.37;6.40;;;;;;;;;;4362368;32;20167;-74
2021/04/27 08:26:59;;;;;;;9.17;5.70;;;;;;;;;;4362250;33;20139;-72
2021/04/27 08:29:27;;;;;;;12.33;6.20;;;;;;;;;;4362723;32;20135;-73
2021/04/27 08:32:44;;;;;;;8.00;5.40;;;;;;;;;;4361898;33;20159;-72
2021/04/27 08:35:03;;;;;;;12.20;5.60;;;;;;;;;;4361017;33;20512;-72
2021/04/27 08:37:32;;;;;;;11.40;5.90;;;;;;;;;;4361929;33;20144;-73
2021/04/27 08:43:21;;;;;;;8.00;5.77;;;;;;;;;;4358059;33;20511;-72
2021/04/27 08:45:46;;;;;;;10.73;6.00;;;;;;;;;;4361217;33;20171;-71
2021/04/27 08:48:55;;;;;;;10.20;6.03;;;;;;;;;;4348397;33;20240;-72
2021/04/27 08:51:11;;;;;;;9.43;6.13;;;;;;;;;;4358267;33;20468;-71
2021/04/27 08:53:47;;;;;;;11.07;6.57;;;;;;;;;;4362678;32;20147;-72
2021/04/27 08:56:12;;;;;;;8.00;5.80;;;;;;;;;;4362670;32;20143;-72
2021/04/27 08:58:47;;;;;;;9.73;6.30;;;;;;;;;;4362726;32;20552;-72
2021/04/27 09:01:14;;;;;;;11.27;5.97;;;;;;;;;;4362589;32;20135;-73
2021/04/27 09:03:45;;;;;;;8.40;5.60;;;;;;;;;;4361793;32;20182;-73
2021/04/27 09:06:19;;;;;;;7.87;5.87;;;;;;;;;;4361466;32;20147;-70
2021/04/27 09:08:47;;;;;;;7.83;5.60;;;;;;;;;;4361794;32;20238;-72
2021/04/27 09:11:28;;;;;;;10.80;5.50;;;;;;;;;;4361807;32;20549;-72
2021/04/27 09:22:50;;;;;;;9.82;5.80;;;;;;;;;;4287116;33;20170;-72
2021/04/27 09:25:42;;;;;;;9.03;6.00;;;;;;;;;;4286300;33;20164;-75
2021/04/27 09:28:38;;;;;;;7.80;5.37;;;;;;;;;;4274601;33;20292;-72
2021/04/27 09:34:35;;;;;;;8.27;6.15;;;;;;;;;;4346864;33;20162;-72
2021/04/27 09:37:05;;;;;;;7.95;5.80;;;;;;;;;;4347081;33;20163;-75
2021/04/27 09:39:40;;;;;;;8.73;6.00;;;;;;;;;;4346998;33;20179;-73
2021/04/27 09:42:15;;;;;;;9.43;5.45;;;;;;;;;;4347446;33;20165;-74
2021/04/27 09:44:41;;;;;;;7.82;5.43;;;;;;;;;;4346551;33;20134;-73
2021/04/27 09:47:10;;;;;;;7.43;5.45;;;;;;;;;;4346525;33;20201;-73
2021/04/27 09:49:36;;;;;;;9.13;5.47;;;;;;;;;;4347101;33;20201;-72
2021/04/27 09:52:06;;;;;;;9.65;5.55;;;;;;;;;;4346206;33;20151;-72
2021/04/27 09:55:03;;;;;;;10.00;6.00;;;;;;;;;;4347042;33;20553;-73
2021/04/27 09:57:42;;;;;;;6.32;5.22;;;;;;;;;;4340978;33;20171;-72
2021/04/27 10:00:27;;;;;;;7.75;5.50;;;;;;;;;;4347236;33;20135;-73
2021/04/27 10:03:16;;;;;;;12.32;5.70;;;;;;;;;;4346458;33;20181;-72
2021/04/27 10:09:02;;;;;;;11.12;5.53;;;;;;;;;;4285770;33;20609;-74
2021/04/27 10:11:51;;;;;;;9.55;5.53;;;;;;;;;;4340010;33;20209;-73
2021/04/27 10:14:38;;;;;;;9.07;5.18;;;;;;;;;;4346003;33;20150;-73
2021/04/27 10:17:02;;;;;;;6.10;5.47;;;;;;;;;;4345944;33;20218;-72
2021/04/27 10:20:07;;;;;;;8.88;5.07;;;;;;;;;;4346359;33;20147;-74
2021/04/27 10:22:34;;;;;;;8.32;5.03;;;;;;;;;;4345829;33;20143;-70
2021/04/27 10:24:59;;;;;;;8.20;5.62;;;;;;;;;;4358007;33;20197;-72
2021/04/27 10:27:39;;;;;;;9.73;5.35;;;;;;;;;;4361581;32;20482;-73
2021/04/27 10:30:21;;;;;;;8.02;5.10;;;;;;;;;;4360620;32;20151;-74
2021/04/27 10:33:06;;;;;;;5.43;4.47;;;;;;;;;;4361169;32;20185;-73
2021/04/27 10:35:32;;;;;;;7.07;4.78;;;;;;;;;;4360882;32;20155;-72
2021/04/27 10:37:58;;;;;;;6.32;5.15;;;;;;;;;;4360129;32;20190;-73
2021/04/27 10:40:44;;;;;;;6.87;4.80;;;;;;;;;;4360674;32;20170;-72
2021/04/27 10:43:22;;;;;;;8.50;5.30;;;;;;;;;;4360771;33;20564;-73
2021/04/27 10:46:05;;;;;;;7.28;4.82;;;;;;;;;;4361146;32;20138;-71
2021/04/27 10:48:31;;;;;;;7.53;4.80;;;;;;;;;;4360926;32;20162;-73
2021/04/27 10:50:59;;;;;;;9.82;4.90;;;;;;;;;;4360426;32;20138;-73
2021/04/27 10:53:32;;;;;;;8.98;4.87;;;;;;;;;;4360249;32;20236;-74
2021/04/27 10:55:58;;;;;;;7.55;4.72;;;;;;;;;;4360814;32;20143;-71
2021/04/27 10:58:42;;;;;;;8.32;5.15;;;;;;;;;;4361059;32;20535;-73
2021/04/27 11:01:20;;;;;;;6.90;5.18;;;;;;;;;;4360298;32;20155;-72
2021/04/27 11:03:53;;;;;;;7.30;4.93;;;;;;;;;;4360707;32;20597;-72
2021/04/27 11:06:18;;;;;;;7.55;4.68;;;;;;;;;;4371294;32;20167;-72
2021/04/27 11:08:46;;;;;;;8.23;5.05;;;;;;;;;;4360396;32;20250;-73
2021/04/27 11:11:21;;;;;;;6.87;4.90;;;;;;;;;;4359668;32;20495;-73
2021/04/27 11:13:48;;;;;;;6.85;4.30;;;;;;;;;;4360288;32;20168;-73
2021/04/27 11:16:53;;;;;;;;;;;;;;;;;;;;;
2021/04/27 11:19:18;;;;;;;9.90;4.93;;;;;;;;;;4353473;33;20200;-74
2021/04/27 11:21:57;;;;;;;7.43;4.62;;;;;;;;;;4358935;33;20182;-73
2021/04/27 11:24:35;;;;;;;7.93;3.92;;;;;;;;;;4358507;32;20570;-73
2021/04/27 11:27:01;;;;;;;6.93;4.47;;;;;;;;;;4359974;32;20507;-69
2021/04/27 11:29:38;;;;;;;7.57;4.70;;;;;;;;;;4358970;32;20589;-73
2021/04/27 11:32:04;;;;;;;8.48;4.57;;;;;;;;;;4345944;33;20197;-74
2021/04/27 11:34:30;;;;;;;6.32;4.68;;;;;;;;;;4359420;32;20262;-72
2021/04/27 11:39:39;;;;;;;4.93;4.20;;;;;;;;;;4360324;32;20175;-71
2021/04/27 11:42:05;;;;;;;8.00;4.32;;;;;;;;;;4359230;32;20151;-73
2021/04/27 11:44:34;;;;;;;6.45;4.62;;;;;;;;;;4359802;33;20162;-74
2021/04/27 11:47:20;;;;;;;7.78;4.47;;;;;;;;;;4360031;33;20128;-74
2021/04/27 11:49:56;;;;;;;6.15;4.22;;;;;;;;;;4363679;32;20127;-74
2021/04/27 11:52:44;;;;;;;4.90;4.18;;;;;;;;;;4363231;32;20438;-74
2021/04/27 11:55:19;;;;;;;6.53;4.32;;;;;;;;;;4361412;33;20186;-76
2021/04/27 12:01:16;;;;;;;8.52;4.78;;;;;;;;;;4259053;33;20168;-75
2021/04/27 12:03:46;;;;;;;8.98;4.70;;;;;;;;;;4297549;33;20293;-72
2021/04/27 12:06:18;;;;;;;5.75;4.25;;;;;;;;;;4354543;32;20607;-74
2021/04/27 12:09:16;;;;;;;5.22;4.37;;;;;;;;;;4362765;33;20155;-72
2021/04/27 12:11:45;;;;;;;5.53;3.90;;;;;;;;;;4301867;33;20207;-71
2021/04/27 12:14:11;;;;;;;6.47;4.47;;;;;;;;;;4359987;32;20209;-72
2021/04/27 12:17:13;;;;;;;9.10;4.50;;;;;;;;;;4361843;32;20556;-74
2021/04/27 12:19:37;;;;;;;5.30;4.32;;;;;;;;;;4362455;32;20257;-73
2021/04/27 12:22:05;;;;;;;4.90;4.40;;;;;;;;;;4349471;33;20224;-73
2021/04/27 12:24:35;;;;;;;4.90;3.80;;;;;;;;;;4362192;32;20498;-74
2021/04/27 12:27:08;;;;;;;5.05;4.37;;;;;;;;;;4362798;32;20135;-75
2021/04/27 12:30:12;;;;;;;6.43;5.00;;;;;;;;;;4362561;32;20226;-75
2021/04/27 12:32:49;;;;;;;6.15;4.70;;;;;;;;;;4362393;32;20236;-75
2021/04/27 12:35:20;;;;;;;7.12;4.32;;;;;;;;;;4362945;32;20154;-71
2021/04/27 12:37:54;;;;;;;7.25;4.57;;;;;;;;;;4362564;32;20135;-75
2021/04/27 12:40:21;;;;;;;7.28;4.87;;;;;;;;;;4362856;32;20177;-70
2021/04/27 12:42:49;;;;;;;6.90;4.70;;;;;;;;;;4362498;32;20422;-74
2021/04/27 12:45:17;;;;;;;6.05;4.87;;;;;;;;;;4362538;32;20583;-74
2021/04/27 12:47:50;;;;;;;5.43;4.55;;;;;;;;;;4362383;33;20128;-73
2021/04/27 12:50:20;;;;;;;13.00;5.47;;;;;;;;;;4360766;33;20194;-75
2021/04/27 12:53:07;;;;;;;13.27;5.12;;;;;;;;;;4361713;32;20139;-73
2021/04/27 12:55:34;;;;;;;7.35;4.95;;;;;;;;;;4362077;33;20231;-75
2021/04/27 12:58:24;;;;;;;7.07;4.47;;;;;;;;;;4362429;32;20135;-74
2021/04/27 13:00:58;;;;;;;7.05;4.60;;;;;;;;;;4361309;32;20162;-72
2021/04/27 13:03:26;;;;;;;9.50;4.70;;;;;;;;;;4362811;32;20230;-72
2021/04/27 13:05:55;;;;;;;5.15;4.53;;;;;;;;;;4361875;32;20139;-76
2021/04/27 13:08:24;;;;;;;5.65;4.65;;;;;;;;;;4361828;32;20128;-74
2021/04/27 13:10:59;;;;;;;5.45;4.18;;;;;;;;;;4361724;32;20202;-74
2021/04/27 13:13:25;;;;;;;6.47;4.53;;;;;;;;;;4362045;32;20173;-74
2021/04/27 13:16:26;;;;;;;8.73;4.40;;;;;;;;;;4362135;32;20521;-72
2021/04/27 13:19:00;;;;;;;5.95;4.20;;;;;;;;;;4361697;32;20549;-75
2021/04/27 13:21:25;;;;;;;5.28;4.57;;;;;;;;;;4361768;33;20202;-72
2021/04/27 13:24:12;;;;;;;6.65;4.90;;;;;;;;;;4361415;33;20151;-74
2021/04/27 13:26:41;;;;;;;7.72;4.57;;;;;;;;;;4361923;32;20241;-72
2021/04/27 13:29:29;;;;;;;5.07;4.57;;;;;;;;;;4361519;32;20136;-75
2021/04/27 13:32:16;;;;;;;6.87;4.45;;;;;;;;;;4354848;32;20289;-73
2021/04/27 13:34:41;;;;;;;13.75;4.97;;;;;;;;;;4362515;32;20559;-70
2021/04/27 13:37:07;;;;;;;6.95;4.43;;;;;;;;;;4361526;32;20123;-74
2021/04/27 13:39:32;;;;;;;6.28;4.32;;;;;;;;;;4361546;33;20135;-76
2021/04/27 13:42:10;;;;;;;8.55;4.93;;;;;;;;;;4372941;32;20155;-76
2021/04/27 13:44:36;;;;;;;5.45;4.28;;;;;;;;;;4361741;32;20252;-74
2021/04/27 13:47:02;;;;;;;5.50;4.30;;;;;;;;;;4360992;32;20166;-74
2021/04/27 13:49:28;;;;;;;7.47;4.43;;;;;;;;;;4360735;32;20127;-74
2021/04/27 13:51:53;;;;;;;5.82;4.75;;;;;;;;;;4360815;33;20233;-71
2021/04/27 13:54:18;;;;;;;7.60;4.80;;;;;;;;;;4359411;33;20182;-74
2021/04/27 13:56:44;;;;;;;5.75;4.45;;;;;;;;;;4359106;32;20249;-74
2021/04/27 13:59:09;;;;;;;4.55;3.97;;;;;;;;;;4360990;32;20182;-71
2021/04/27 14:01:37;;;;;;;8.15;4.72;;;;;;;;;;4361136;32;20154;-74
2021/04/27 14:04:02;;;;;;;6.37;4.75;;;;;;;;;;4360956;33;20147;-75
2021/04/27 14:06:27;;;;;;;5.62;4.47;;;;;;;;;;4361477;32;20131;-73
2021/04/27 14:08:52;;;;;;;8.48;4.57;;;;;;;;;;4372254;32;20229;-76
2021/04/27 14:11:18;;;;;;;7.20;4.70;;;;;;;;;;4359588;32;20533;-72
2021/04/27 14:13:44;;;;;;;7.97;5.12;;;;;;;;;;4360972;32;20225;-75
2021/04/27 14:16:24;;;;;;;6.47;5.05;;;;;;;;;;4360303;32;20128;-72
2021/04/27 14:19:00;;;;;;;9.80;4.90;;;;;;;;;;4360532;32;20152;-73
2021/04/27 14:21:26;;;;;;;8.30;5.20;;;;;;;;;;4372150;32;20186;-72
2021/04/27 14:23:54;;;;;;;7.47;4.63;;;;;;;;;;4358731;32;20174;-71
2021/04/27 14:26:19;;;;;;;7.05;4.87;;;;;;;;;;4361660;32;20227;-73
2021/04/27 14:28:47;;;;;;;9.65;4.70;;;;;;;;;;4359515;32;20202;-75
2021/04/27 14:31:16;;;;;;;4.95;4.55;;;;;;;;;;4360587;33;20132;-75
2021/04/27 14:33:41;;;;;;;5.37;4.47;;;;;;;;;;4361790;32;20229;-74
2021/04/27 14:36:06;;;;;;;7.78;4.45;;;;;;;;;;4361799;32;20124;-75
2021/04/27 14:38:33;;;;;;;5.10;4.53;;;;;;;;;;4360721;32;20536;-76
2021/04/27 14:40:58;;;;;;;6.78;4.12;;;;;;;;;;4359318;32;20198;-70
2021/04/27 14:43:23;;;;;;;6.07;5.47;;;;;;;;;;4360786;32;20166;-76
2021/04/27 14:45:49;;;;;;;6.87;5.75;;;;;;;;;;4360454;32;20143;-74
2021/04/27 14:48:14;;;;;;;7.70;4.47;;;;;;;;;;4360834;32;20242;-71
2021/04/27 14:50:40;;;;;;;7.37;4.80;;;;;;;;;;4360648;33;20158;-73
2021/04/27 14:53:05;;;;;;;6.97;4.50;;;;;;;;;;4359124;32;20255;-74
2021/04/27 14:55:31;;;;;;;5.97;4.20;;;;;;;;;;4359920;32;20127;-70
2021/04/27 14:57:56;;;;;;;9.10;4.30;;;;;;;;;;4360824;32;20139;-74
2021/04/27 15:00:22;;;;;;;5.53;4.20;;;;;;;;;;4360713;32;20668;-72
2021/04/27 15:02:47;;;;;;;5.47;3.62;;;;;;;;;;4360791;32;20549;-75
2021/04/27 15:05:15;;;;;;;5.85;3.67;;;;;;;;;;4360552;32;20127;-75
2021/04/27 15:07:40;;;;;;;6.07;3.40;;;;;;;;;;4370999;32;20591;-72
2021/04/27 15:10:07;;;;;;;5.40;3.70;;;;;;;;;;4360784;32;20127;-73
2021/04/27 15:12:33;;;;;;;5.87;4.18;;;;;;;;;;4360542;32;20165;-73
2021/04/27 15:14:58;;;;;;;5.30;3.97;;;;;;;;;;4358897;32;20496;-74
2021/04/27 15:17:24;;;;;;;4.90;3.58;;;;;;;;;;4359873;32;20638;-71
2021/04/27 15:19:49;;;;;;;7.43;4.03;;;;;;;;;;4360333;33;20182;-73
2021/04/27 15:22:17;;;;;;;6.18;3.97;;;;;;;;;;4360451;32;20189;-73
2021/04/27 15:24:42;;;;;;;5.60;4.07;;;;;;;;;;4358705;32;20159;-74
2021/04/27 15:27:08;;;;;;;6.85;3.62;;;;;;;;;;4360185;32;20215;-73
2021/04/27 15:29:36;;;;;;;5.50;3.90;;;;;;;;;;4359730;33;20189;-75
2021/04/27 15:32:02;;;;;;;6.20;4.65;;;;;;;;;;4358582;33;20189;-73
2021/04/27 15:34:27;;;;;;;4.85;4.10;;;;;;;;;;4360514;32;20138;-75
2021/04/27 15:36:53;;;;;;;7.12;4.62;;;;;;;;;;4357779;33;20147;-76
2021/04/27 15:39:18;;;;;;;5.25;4.22;;;;;;;;;;4359581;32;20151;-73
2021/04/27 15:41:46;;;;;;;4.87;4.22;;;;;;;;;;4359121;32;20216;-73
2021/04/27 15:44:11;;;;;;;6.22;4.82;;;;;;;;;;4359981;32;20218;-75
2021/04/27 15:46:38;;;;;;;5.60;4.75;;;;;;;;;;4359785;33;20128;-71
2021/04/27 15:49:04;;;;;;;4.37;3.95;;;;;;;;;;4360321;33;20135;-72
2021/04/27 15:51:29;;;;;;;6.53;4.20;;;;;;;;;;4360148;33;20575;-73
2021/04/27 15:53:54;;;;;;;5.95;4.07;;;;;;;;;;4359720;33;20166;-74
2021/04/27 15:56:20;;;;;;;6.25;4.22;;;;;;;;;;4360572;33;20510;-73
2021/04/27 15:58:45;;;;;;;7.95;4.70;;;;;;;;;;4360479;33;20123;-73
2021/04/27 16:01:10;;;;;;;11.07;4.93;;;;;;;;;;4359901;33;20198;-74
2021/04/27 16:03:42;;;;;;;7.68;5.53;;;;;;;;;;4360195;33;20149;-74
2021/04/27 16:06:08;;;;;;;8.75;5.43;;;;;;;;;;4360688;33;20136;-72
2021/04/27 16:08:33;;;;;;;7.95;5.50;;;;;;;;;;4360092;33;20461;-75
2021/04/27 16:10:58;;;;;;;8.82;6.03;;;;;;;;;;4360278;33;20147;-74
2021/04/27 16:13:23;;;;;;;8.75;6.40;;;;;;;;;;4358757;33;20211;-74
2021/04/27 16:15:49;;;;;;;6.68;5.55;;;;;;;;;;4360755;33;20201;-75
2021/04/27 16:18:14;;;;;;;9.18;5.43;;;;;;;;;;4359120;33;20194;-72
2021/04/27 16:20:40;;;;;;;9.77;6.72;;;;;;;;;;4359753;33;20136;-76
2021/04/27 16:23:05;;;;;;;12.55;5.75;;;;;;;;;;4360587;33;20172;-74
2021/04/27 16:25:31;;;;;;;8.95;5.70;;;;;;;;;;4358799;33;20671;-75
2021/04/27 16:27:56;;;;;;;7.65;5.37;;;;;;;;;;4360538;33;20226;-75
2021/04/27 16:30:21;;;;;;;6.53;5.57;;;;;;;;;;4347278;33;20230;-73
2021/04/27 16:32:47;;;;;;;8.15;5.87;;;;;;;;;;4360117;33;20143;-74
2021/04/27 16:35:13;;;;;;;7.78;6.20;;;;;;;;;;4360652;32;20135;-74
2021/04/27 16:37:39;;;;;;;7.00;6.22;;;;;;;;;;4363571;32;20230;-76
2021/04/27 16:40:04;;;;;;;8.02;6.12;;;;;;;;;;4362735;33;20163;-75
2021/04/27 16:42:29;;;;;;;10.15;5.40;;;;;;;;;;4362704;33;20152;-74
2021/04/27 16:44:54;;;;;;;7.25;5.90;;;;;;;;;;4362530;32;20153;-76
2021/04/27 16:47:20;;;;;;;10.05;5.55;;;;;;;;;;4363291;32;20556;-73
2021/04/27 16:49:54;;;;;;;11.02;5.35;;;;;;;;;;4363928;32;20579;-74
2021/04/27 16:52:19;;;;;;;8.18;5.90;;;;;;;;;;4363071;32;20188;-76
2021/04/27 16:54:45;;;;;;;8.13;5.90;;;;;;;;;;4362539;32;20135;-74
2021/04/27 16:57:10;;;;;;;8.02;6.15;;;;;;;;;;4362357;32;20131;-74
2021/04/27 16:59:35;;;;;;;8.77;5.47;;;;;;;;;;4360952;32;20182;-76
2021/04/27 17:02:07;;;;;;;10.13;6.12;;;;;;;;;;4361183;32;20158;-75
2021/04/27 17:04:32;;;;;;;11.00;6.07;;;;;;;;;;4362087;32;20194;-74
2021/04/27 17:06:57;;;;;;;9.68;5.70;;;;;;;;;;4362330;32;20135;-74
2021/04/27 17:09:26;;;;;;;7.97;5.55;;;;;;;;;;4345788;33;20155;-76
2021/04/27 17:11:51;;;;;;;9.75;5.28;;;;;;;;;;4345753;33;20166;-74
2021/04/27 17:14:16;;;;;;;8.32;5.25;;;;;;;;;;4347173;33;20203;-74